createdAt,value
2018-07-09T00:01:00.353Z,18.60
2018-07-09T00:03:28.802Z,18.60
2018-07-09T00:05:57.218Z,18.50
2018-07-09T00:08:25.696Z,18.50
2018-07-09T00:11:02.062Z,18.50
2018-07-09T00:13:31.527Z,18.50
2018-07-09T00:16:00.276Z,18.40
2018-07-09T00:18:28.882Z,18.40
2018-07-09T00:20:57.494Z,18.30
2018-07-09T00:23:25.968Z,18.30
2018-07-09T00:28:23.833Z,18.30
2018-07-09T00:30:52.379Z,18.20
2018-07-09T00:33:21.381Z,18.20
2018-07-09T00:35:49.961Z,18.20
2018-07-09T00:38:18.970Z,18.20
2018-07-09T00:40:47.408Z,18.10
2018-07-09T00:43:15.868Z,18.10
2018-07-09T00:45:44.402Z,18.00
2018-07-09T00:48:12.979Z,17.90
2018-07-09T00:50:41.489Z,17.90
2018-07-09T00:53:09.975Z,17.90
2018-07-09T00:55:38.401Z,17.90
2018-07-09T00:58:06.876Z,17.90
2018-07-09T01:00:35.648Z,17.90
2018-07-09T01:03:04.196Z,17.80
2018-07-09T01:05:32.653Z,17.70
2018-07-09T01:08:01.287Z,17.80
2018-07-09T01:10:29.757Z,17.70
2018-07-09T01:12:58.459Z,17.70
2018-07-09T01:15:26.918Z,17.70
2018-07-09T01:17:55.378Z,17.70
2018-07-09T01:20:23.968Z,17.70
2018-07-09T01:22:52.384Z,17.70
2018-07-09T01:25:20.819Z,17.70
2018-07-09T01:27:49.276Z,17.70
2018-07-09T01:30:17.730Z,17.60
2018-07-09T01:32:46.177Z,17.60
2018-07-09T01:37:43.606Z,17.50
2018-07-09T01:40:12.191Z,17.50
2018-07-09T01:42:40.699Z,17.50
2018-07-09T01:45:09.116Z,17.50
2018-07-09T01:47:37.561Z,17.50
2018-07-09T01:50:05.981Z,17.50
2018-07-09T01:52:34.492Z,17.50
2018-07-09T01:55:02.960Z,17.40
2018-07-09T01:57:31.928Z,17.30
2018-07-09T02:00:00.366Z,17.30
2018-07-09T02:02:28.784Z,17.30
2018-07-09T02:04:57.315Z,17.20
2018-07-09T02:07:25.779Z,17.20
2018-07-09T02:09:54.254Z,17.20
2018-07-09T02:12:22.736Z,17.20
2018-07-09T02:14:51.224Z,17.20
2018-07-09T02:17:19.665Z,17.20
2018-07-09T02:19:48.087Z,17.10
2018-07-09T02:22:16.797Z,17.10
2018-07-09T02:24:45.225Z,17.00
2018-07-09T02:27:13.705Z,17.00
2018-07-09T02:29:42.162Z,17.00
2018-07-09T02:32:10.687Z,17.00
2018-07-09T02:34:39.159Z,16.90
2018-07-09T02:37:07.652Z,16.90
2018-07-09T02:39:36.164Z,16.80
2018-07-09T02:42:04.911Z,16.80
2018-07-09T02:44:33.381Z,16.70
2018-07-09T02:47:01.844Z,16.70
2018-07-09T02:49:30.313Z,16.80
2018-07-09T02:52:00.016Z,16.70
2018-07-09T02:54:28.487Z,16.60
2018-07-09T02:56:56.958Z,16.60
2018-07-09T02:59:25.399Z,16.60
2018-07-09T03:01:53.910Z,16.60
2018-07-09T03:04:22.369Z,16.60
2018-07-09T03:06:50.881Z,16.60
2018-07-09T03:09:19.280Z,16.60
2018-07-09T03:11:47.752Z,16.60
2018-07-09T03:14:16.328Z,16.60
2018-07-09T03:16:44.789Z,16.60
2018-07-09T03:19:13.348Z,16.50
2018-07-09T03:21:42.055Z,16.50
2018-07-09T03:24:10.514Z,16.50
2018-07-09T03:26:38.940Z,16.40
2018-07-09T03:29:07.469Z,16.40
2018-07-09T03:31:35.953Z,16.30
2018-07-09T03:34:04.626Z,16.30
2018-07-09T03:36:33.139Z,16.30
2018-07-09T03:39:01.707Z,16.30
2018-07-09T03:41:30.199Z,16.20
2018-07-09T03:43:58.668Z,16.20
2018-07-09T03:46:27.161Z,16.20
2018-07-09T03:51:24.071Z,16.20
2018-07-09T03:53:52.613Z,16.20
2018-07-09T03:58:49.220Z,16.30
2018-07-09T04:01:18.520Z,16.30
2018-07-09T04:03:47.058Z,16.30
2018-07-09T04:06:15.625Z,16.30
2018-07-09T04:11:12.159Z,16.30
2018-07-09T04:13:40.609Z,16.30
2018-07-09T04:16:09.132Z,16.40
2018-07-09T04:18:37.620Z,16.50
2018-07-09T04:21:06.532Z,16.80
2018-07-09T04:23:34.961Z,17.60
2018-07-09T04:26:03.399Z,18.40
2018-07-09T04:28:32.043Z,19.20
2018-07-09T04:31:00.647Z,19.30
2018-07-09T04:33:29.221Z,19.10
2018-07-09T04:35:57.652Z,18.50
2018-07-09T04:38:26.159Z,18.00
2018-07-09T04:40:54.633Z,17.90
2018-07-09T04:43:23.142Z,18.60
2018-07-09T04:45:51.498Z,19.70
2018-07-09T04:48:19.931Z,20.30
2018-07-09T04:50:48.490Z,21.10
2018-07-09T04:53:16.917Z,21.30
2018-07-09T04:55:45.409Z,21.30
2018-07-09T04:58:13.908Z,21.40
2018-07-09T05:03:10.604Z,21.80
2018-07-09T05:05:39.132Z,22.20
2018-07-09T05:08:07.570Z,22.30
2018-07-09T05:10:36.065Z,22.30
2018-07-09T05:13:04.607Z,22.60
2018-07-09T05:15:32.986Z,23.10
2018-07-09T05:18:01.434Z,23.30
2018-07-09T05:22:58.253Z,22.80
2018-07-09T05:25:26.756Z,22.80
2018-07-09T05:27:55.202Z,22.50
2018-07-09T05:30:23.752Z,23.40
2018-07-09T05:32:52.726Z,23.20
2018-07-09T05:35:21.323Z,23.60
2018-07-09T05:37:49.793Z,24.00
2018-07-09T05:40:18.299Z,22.90
2018-07-09T05:42:46.841Z,24.30
2018-07-09T05:45:15.294Z,23.30
2018-07-09T05:47:43.765Z,23.00
2018-07-09T05:50:12.620Z,23.40
2018-07-09T05:52:41.142Z,22.50
2018-07-09T05:55:09.600Z,22.20
2018-07-09T05:57:38.121Z,22.70
2018-07-09T06:00:06.713Z,23.50
2018-07-09T06:02:36.069Z,23.70
2018-07-09T06:05:04.516Z,23.70
2018-07-09T06:07:32.993Z,24.10
2018-07-09T06:10:01.449Z,24.00
2018-07-09T06:12:30.036Z,24.40
2018-07-09T06:14:58.509Z,24.00
2018-07-09T06:17:27.052Z,25.00
2018-07-09T06:19:55.523Z,25.30
2018-07-09T06:22:24.065Z,25.10
2018-07-09T06:24:52.616Z,24.70
2018-07-09T06:27:21.090Z,24.90
2018-07-09T06:29:49.587Z,24.70
2018-07-09T06:32:18.081Z,24.80
2018-07-09T06:34:46.925Z,24.60
2018-07-09T06:37:15.361Z,24.90
2018-07-09T06:39:43.914Z,25.10
2018-07-09T06:42:12.399Z,25.10
2018-07-09T06:44:40.908Z,25.50
2018-07-09T06:47:09.443Z,25.80
2018-07-09T06:49:37.917Z,25.70
2018-07-09T06:52:06.503Z,25.20
2018-07-09T06:54:35.075Z,25.60
2018-07-09T06:57:03.561Z,25.70
2018-07-09T06:59:32.023Z,26.00
2018-07-09T07:02:00.489Z,25.10
2018-07-09T07:04:28.949Z,26.60
2018-07-09T07:06:57.428Z,26.20
2018-07-09T07:09:25.873Z,25.70
2018-07-09T07:11:54.410Z,25.70
2018-07-09T07:14:23.024Z,26.40
2018-07-09T07:16:51.512Z,26.90
2018-07-09T07:19:19.980Z,26.00
2018-07-09T07:21:48.580Z,26.90
2018-07-09T07:24:17.252Z,27.30
2018-07-09T07:26:45.700Z,28.00
2018-07-09T07:31:42.489Z,28.30
2018-07-09T07:34:11.012Z,27.90
2018-07-09T07:36:39.478Z,27.30
2018-07-09T07:39:08.068Z,27.90
2018-07-09T07:41:36.708Z,28.30
2018-07-09T07:44:05.189Z,27.90
2018-07-09T07:46:33.600Z,27.60
2018-07-09T07:49:02.096Z,27.00
2018-07-09T07:51:30.569Z,26.00
2018-07-09T07:53:59.008Z,26.70
2018-07-09T07:56:27.634Z,27.20
2018-07-09T07:58:56.093Z,27.30
2018-07-09T08:01:24.612Z,28.60
2018-07-09T08:03:53.113Z,27.80
2018-07-09T08:06:21.543Z,27.20
2018-07-09T08:08:50.156Z,27.40
2018-07-09T08:11:18.627Z,26.90
2018-07-09T08:13:47.063Z,27.50
2018-07-09T08:16:15.726Z,26.70
2018-07-09T08:18:44.243Z,27.40
2018-07-09T08:21:12.749Z,28.00
2018-07-09T08:23:41.226Z,26.40
2018-07-09T08:26:09.750Z,26.50
2018-07-09T08:28:38.214Z,27.50
2018-07-09T08:31:06.935Z,27.80
2018-07-09T08:33:36.173Z,27.50
2018-07-09T08:36:04.695Z,26.70
2018-07-09T08:38:33.487Z,26.50
2018-07-09T08:41:02.000Z,28.80
2018-07-09T08:43:30.484Z,28.20
2018-07-09T08:45:59.159Z,28.00
2018-07-09T08:48:27.747Z,27.90
2018-07-09T08:50:56.232Z,28.20
2018-07-09T08:53:24.669Z,28.90
2018-07-09T08:55:53.169Z,27.90
2018-07-09T08:58:21.671Z,26.90
2018-07-09T09:00:50.240Z,26.90
2018-07-09T09:03:18.696Z,27.70
2018-07-09T09:05:47.151Z,26.40
2018-07-09T09:08:15.628Z,26.20
2018-07-09T09:13:12.785Z,26.30
2018-07-09T09:15:41.227Z,26.50
2018-07-09T09:18:09.940Z,26.60
2018-07-09T09:20:38.436Z,27.60
2018-07-09T09:25:35.144Z,28.40
2018-07-09T09:28:03.631Z,27.10
2018-07-09T09:30:32.061Z,27.40
2018-07-09T09:33:00.550Z,27.40
2018-07-09T09:35:29.328Z,28.40
2018-07-09T09:37:57.842Z,27.80
2018-07-09T09:40:26.296Z,27.10
2018-07-09T09:42:54.835Z,28.20
2018-07-09T09:45:23.321Z,27.50
2018-07-09T09:47:51.799Z,26.80
2018-07-09T09:50:20.355Z,27.50
2018-07-09T09:52:48.884Z,28.10
2018-07-09T09:55:17.552Z,27.50
2018-07-09T09:57:46.166Z,26.50
2018-07-09T10:00:14.602Z,26.90
2018-07-09T10:02:43.055Z,26.80
2018-07-09T10:05:11.529Z,26.90
2018-07-09T10:07:39.933Z,27.40
2018-07-09T10:10:08.500Z,27.90
2018-07-09T10:12:36.916Z,27.30
2018-07-09T10:15:05.376Z,27.50
2018-07-09T10:17:33.887Z,28.00
2018-07-09T10:20:02.408Z,28.00
2018-07-09T10:22:31.111Z,28.60
2018-07-09T10:24:59.589Z,28.10
2018-07-09T10:27:28.116Z,28.60
2018-07-09T10:32:24.724Z,27.90
2018-07-09T10:34:53.579Z,28.00
2018-07-09T10:37:22.085Z,27.90
2018-07-09T10:39:50.545Z,27.60
2018-07-09T10:42:19.001Z,27.50
2018-07-09T10:44:47.537Z,26.80
2018-07-09T10:47:16.055Z,26.50
2018-07-09T10:52:12.679Z,27.40
2018-07-09T10:54:41.195Z,26.50
2018-07-09T10:59:37.761Z,26.00
2018-07-09T11:02:06.293Z,26.20
2018-07-09T11:04:34.824Z,26.00
2018-07-09T11:07:03.532Z,25.60
2018-07-09T11:09:32.311Z,26.10
2018-07-09T11:12:00.796Z,26.30
2018-07-09T11:14:29.296Z,27.30
2018-07-09T11:16:57.745Z,27.40
2018-07-09T11:19:26.207Z,27.80
2018-07-09T11:21:54.759Z,26.90
2018-07-09T11:24:23.460Z,26.60
2018-07-09T11:26:51.944Z,26.30
2018-07-09T11:29:20.517Z,26.70
2018-07-09T11:31:48.980Z,26.70
2018-07-09T11:34:17.545Z,26.20
2018-07-09T11:36:46.033Z,26.50
2018-07-09T11:39:14.557Z,26.30
2018-07-09T11:41:43.047Z,26.30
2018-07-09T11:44:11.465Z,25.90
2018-07-09T11:46:40.041Z,26.00
2018-07-09T11:49:08.581Z,26.30
2018-07-09T11:51:37.150Z,26.50
2018-07-09T11:54:05.827Z,26.50
2018-07-09T11:56:34.309Z,26.50
2018-07-09T11:59:02.974Z,25.80
2018-07-09T12:01:31.488Z,25.60
2018-07-09T12:06:28.061Z,25.60
2018-07-09T12:08:57.474Z,25.90
2018-07-09T12:11:25.870Z,25.60
2018-07-09T12:13:54.316Z,25.50
2018-07-09T12:16:23.081Z,25.70
2018-07-09T12:18:51.518Z,26.00
2018-07-09T12:21:20.070Z,25.40
2018-07-09T12:23:49.336Z,25.40
2018-07-09T12:26:18.030Z,25.80
2018-07-09T12:28:46.823Z,26.20
2018-07-09T12:31:15.350Z,26.20
2018-07-09T12:33:43.804Z,25.50
2018-07-09T12:36:13.448Z,25.80
2018-07-09T12:38:41.885Z,26.20
2018-07-09T12:41:10.388Z,26.50
2018-07-09T12:43:39.204Z,26.30
2018-07-09T12:46:07.820Z,25.90
2018-07-09T12:48:36.367Z,26.00
2018-07-09T12:51:05.334Z,25.70
2018-07-09T12:53:33.785Z,25.60
2018-07-09T12:56:02.254Z,25.70
2018-07-09T12:58:31.036Z,25.80
2018-07-09T13:03:28.706Z,25.10
2018-07-09T13:05:57.208Z,25.20
2018-07-09T13:08:25.659Z,25.20
2018-07-09T13:10:54.111Z,25.30
2018-07-09T13:13:22.561Z,25.50
2018-07-09T13:15:51.769Z,25.80
2018-07-09T13:18:20.925Z,26.10
2018-07-09T13:20:49.708Z,26.20
2018-07-09T13:23:18.294Z,26.30
2018-07-09T13:25:46.984Z,26.00
2018-07-09T13:28:15.711Z,25.80
2018-07-09T13:30:45.548Z,25.80
2018-07-09T13:33:13.995Z,25.80
2018-07-09T13:35:42.469Z,26.10
2018-07-09T13:38:10.949Z,25.90
2018-07-09T13:40:39.739Z,26.10
2018-07-09T13:43:08.307Z,25.70
2018-07-09T13:45:37.184Z,25.40
2018-07-09T13:48:05.734Z,25.50
2018-07-09T13:50:34.413Z,25.50
2018-07-09T13:53:02.990Z,25.70
2018-07-09T13:55:31.824Z,25.50
2018-07-09T13:58:00.424Z,25.50
2018-07-09T14:00:28.871Z,25.70
2018-07-09T14:02:57.342Z,25.80
2018-07-09T14:05:26.482Z,25.90
2018-07-09T14:07:55.121Z,25.90
2018-07-09T14:10:23.749Z,25.70
2018-07-09T14:12:53.115Z,26.10
2018-07-09T14:15:21.631Z,25.80
2018-07-09T14:17:50.113Z,25.60
2018-07-09T14:20:32.866Z,25.80
2018-07-09T14:23:01.978Z,26.10
2018-07-09T14:25:30.481Z,26.40
2018-07-09T14:27:59.023Z,26.50
2018-07-09T14:30:27.558Z,26.20
2018-07-09T14:32:56.375Z,26.60
2018-07-09T14:35:24.880Z,26.30
2018-07-09T14:37:53.479Z,26.00
2018-07-09T14:40:22.048Z,25.70
2018-07-09T14:42:50.444Z,25.80
2018-07-09T14:45:18.972Z,25.50
2018-07-09T14:47:47.510Z,25.60
2018-07-09T14:50:16.028Z,25.50
2018-07-09T14:52:44.554Z,25.70
2018-07-09T14:55:13.129Z,25.70
2018-07-09T14:57:41.654Z,25.70
2018-07-09T15:00:10.172Z,25.60
2018-07-09T15:02:38.679Z,25.70
2018-07-09T15:05:07.283Z,25.80
2018-07-09T15:07:35.781Z,26.10
2018-07-09T15:10:04.229Z,25.90
2018-07-09T15:12:32.687Z,26.00
2018-07-09T15:15:01.175Z,25.90
2018-07-09T15:17:29.622Z,25.90
2018-07-09T15:19:58.090Z,26.00
2018-07-09T15:22:26.683Z,25.70
2018-07-09T15:24:55.173Z,25.60
2018-07-09T15:27:23.605Z,25.60
2018-07-09T15:29:52.100Z,25.70
2018-07-09T15:32:23.186Z,25.70
2018-07-09T15:34:52.103Z,25.70
2018-07-09T15:37:21.201Z,25.60
2018-07-09T15:39:49.710Z,25.60
2018-07-09T15:42:18.251Z,25.60
2018-07-09T15:44:46.683Z,25.70
2018-07-09T15:47:15.163Z,25.40
2018-07-09T15:49:43.893Z,25.60
2018-07-09T15:52:12.681Z,25.70
2018-07-09T15:54:41.288Z,25.70
2018-07-09T15:57:09.806Z,25.30
2018-07-09T15:59:38.635Z,25.30
2018-07-09T16:02:07.334Z,25.30
2018-07-09T16:04:35.807Z,25.20
2018-07-09T16:07:04.419Z,25.40
2018-07-09T16:09:32.908Z,25.30
2018-07-09T16:12:01.349Z,25.20
2018-07-09T16:14:29.874Z,25.60
2018-07-09T16:16:58.296Z,25.40
2018-07-09T16:19:26.911Z,25.70
2018-07-09T16:21:55.549Z,25.80
2018-07-09T16:24:24.233Z,25.60
2018-07-09T16:26:52.733Z,25.60
2018-07-09T16:29:22.756Z,25.60
2018-07-09T16:34:19.498Z,25.60
2018-07-09T16:36:48.036Z,25.30
2018-07-09T16:39:16.575Z,25.10
2018-07-09T16:44:13.355Z,24.90
2018-07-09T16:46:41.902Z,24.80
2018-07-09T16:49:10.438Z,24.60
2018-07-09T16:51:39.058Z,24.50
2018-07-09T16:54:07.559Z,24.50
2018-07-09T16:56:35.989Z,24.50
2018-07-09T16:59:04.489Z,24.40
2018-07-09T17:01:32.989Z,24.30
2018-07-09T17:04:01.765Z,24.20
2018-07-09T17:06:30.237Z,24.10
2018-07-09T17:08:58.736Z,24.00
2018-07-09T17:11:27.280Z,23.90
2018-07-09T17:13:55.754Z,23.90
2018-07-09T17:16:24.268Z,23.90
2018-07-09T17:18:52.781Z,23.80
2018-07-09T17:21:21.365Z,23.80
2018-07-09T17:26:18.033Z,23.50
2018-07-09T17:28:46.436Z,23.40
2018-07-09T17:31:14.937Z,23.40
2018-07-09T17:33:43.436Z,23.30
2018-07-09T17:36:11.942Z,23.30
2018-07-09T17:38:40.537Z,23.20
2018-07-09T17:41:09.016Z,23.30
2018-07-09T17:43:37.566Z,23.40
2018-07-09T17:46:06.228Z,23.30
2018-07-09T17:48:34.724Z,23.30
2018-07-09T17:51:03.174Z,23.40
2018-07-09T17:53:31.635Z,23.30
2018-07-09T17:56:00.069Z,23.30
2018-07-09T17:58:28.518Z,23.20
2018-07-09T18:00:56.978Z,23.30
2018-07-09T18:03:25.565Z,23.40
2018-07-09T18:05:54.012Z,23.30
2018-07-09T18:08:22.575Z,23.30
2018-07-09T18:10:51.054Z,23.30
2018-07-09T18:13:19.528Z,23.20
2018-07-09T18:15:48.132Z,23.10
2018-07-09T18:18:16.522Z,23.10
2018-07-09T18:20:45.090Z,23.00
2018-07-09T18:23:13.594Z,23.00
2018-07-09T18:25:42.064Z,23.00
2018-07-09T18:28:10.485Z,23.00
2018-07-09T18:30:39.070Z,23.10
2018-07-09T18:33:07.635Z,23.00
2018-07-09T18:35:36.479Z,23.00
2018-07-09T18:38:05.181Z,23.00
2018-07-09T18:40:33.688Z,23.00
2018-07-09T18:43:02.217Z,22.90
2018-07-09T18:45:30.676Z,22.80
2018-07-09T18:47:59.133Z,22.70
2018-07-09T18:50:27.609Z,22.80
2018-07-09T18:52:56.096Z,22.90
2018-07-09T18:55:24.573Z,22.80
2018-07-09T18:57:53.064Z,22.80
2018-07-09T19:00:21.532Z,22.70
2018-07-09T19:02:50.080Z,22.60
2018-07-09T19:05:19.265Z,22.60
2018-07-09T19:07:47.788Z,22.50
2018-07-09T19:10:16.577Z,22.50
2018-07-09T19:12:45.085Z,22.50
2018-07-09T19:15:13.663Z,22.50
2018-07-09T19:17:54.251Z,22.40
2018-07-09T19:20:34.597Z,22.40
2018-07-09T19:23:02.089Z,22.40
2018-07-09T19:25:29.362Z,22.30
2018-07-09T19:27:56.697Z,22.20
2018-07-09T19:30:24.005Z,22.30
2018-07-09T19:32:51.333Z,22.30
2018-07-09T19:35:18.636Z,22.20
2018-07-09T19:37:46.465Z,22.20
2018-07-09T19:40:13.736Z,22.10
2018-07-09T19:42:41.069Z,21.90
2018-07-09T19:45:08.454Z,21.80
2018-07-09T19:47:35.779Z,21.80
2018-07-09T19:50:03.082Z,21.70
2018-07-09T19:52:30.363Z,21.60
2018-07-09T19:54:57.737Z,21.50
2018-07-09T19:57:25.037Z,21.40
2018-07-09T19:59:52.390Z,21.40
2018-07-09T20:02:19.749Z,21.40
2018-07-09T20:04:47.084Z,21.30
2018-07-09T20:09:47.197Z,21.20
2018-07-09T20:12:19.801Z,21.10
2018-07-09T20:14:52.628Z,21.10
2018-07-09T20:17:23.274Z,21.10
2018-07-09T20:19:50.582Z,21.10
2018-07-09T20:22:17.873Z,21.00
2018-07-09T20:24:45.197Z,21.00
2018-07-09T20:27:12.629Z,21.00
2018-07-09T20:29:41.079Z,20.90
2018-07-09T20:32:09.363Z,21.00
2018-07-09T20:34:36.657Z,20.90
2018-07-09T20:37:04.013Z,20.90
2018-07-09T20:39:31.387Z,20.90
2018-07-09T20:41:58.683Z,20.80
2018-07-09T20:44:26.004Z,20.80
2018-07-09T20:46:53.306Z,20.70
2018-07-09T20:49:20.648Z,20.70
2018-07-09T20:51:47.964Z,20.70
2018-07-09T20:54:15.292Z,20.60
2018-07-09T20:56:42.971Z,20.70
2018-07-09T20:59:10.284Z,20.70
2018-07-09T21:01:37.616Z,20.70
2018-07-09T21:04:10.180Z,20.60
2018-07-09T21:06:37.513Z,20.60
2018-07-09T21:09:05.524Z,20.60
2018-07-09T21:11:33.069Z,20.60
2018-07-09T21:14:00.447Z,20.50
2018-07-09T21:16:27.732Z,20.40
2018-07-09T21:21:29.345Z,20.40
2018-07-09T21:23:57.916Z,20.30
2018-07-09T21:26:25.272Z,20.30
2018-07-09T21:28:52.622Z,20.20
2018-07-09T21:31:19.920Z,20.20
2018-07-09T21:33:47.232Z,20.10
2018-07-09T21:36:14.535Z,20.10
2018-07-09T21:38:42.270Z,20.10
2018-07-09T21:41:10.004Z,20.00
2018-07-09T21:43:37.425Z,19.90
2018-07-09T21:46:04.678Z,19.90
2018-07-09T21:48:32.434Z,19.80
2018-07-09T21:50:59.757Z,19.80
2018-07-09T21:53:28.073Z,19.70
2018-07-09T21:55:55.797Z,19.80
2018-07-09T21:58:24.082Z,19.70
2018-07-09T22:00:51.540Z,19.60
2018-07-09T22:05:52.625Z,19.50
2018-07-09T22:08:19.910Z,19.40
2018-07-09T22:10:47.239Z,19.10
2018-07-09T22:13:14.517Z,19.00
2018-07-09T22:15:41.829Z,19.10
2018-07-09T22:18:09.139Z,19.00
2018-07-09T22:20:36.449Z,18.90
2018-07-09T22:23:04.033Z,18.80
2018-07-09T22:25:31.470Z,18.80
2018-07-09T22:27:58.789Z,18.70
2018-07-09T22:30:28.719Z,18.80
2018-07-09T22:32:57.229Z,18.60
2018-07-09T22:35:25.659Z,18.60
2018-07-09T22:40:22.263Z,18.50
2018-07-09T22:42:50.805Z,18.40
2018-07-09T22:45:19.296Z,18.50
2018-07-09T22:47:47.696Z,18.50
2018-07-09T22:50:16.325Z,18.40
2018-07-09T22:52:44.773Z,18.40
2018-07-09T22:55:24.576Z,18.40
2018-07-09T22:57:53.060Z,18.40
2018-07-09T23:00:21.534Z,18.30
2018-07-09T23:03:15.261Z,18.30
2018-07-09T23:05:44.751Z,18.30
2018-07-09T23:08:13.233Z,18.30
2018-07-09T23:11:52.194Z,18.30
2018-07-09T23:17:06.511Z,18.20
2018-07-09T23:19:46.244Z,18.30
2018-07-09T23:22:15.681Z,18.30
2018-07-09T23:24:42.997Z,18.30
2018-07-09T23:27:10.279Z,18.20
2018-07-09T23:29:37.599Z,18.20
2018-07-09T23:32:04.914Z,18.30
2018-07-09T23:34:32.374Z,18.30
2018-07-09T23:36:59.648Z,18.30
2018-07-09T23:39:26.967Z,18.20
2018-07-09T23:41:54.265Z,18.20
2018-07-09T23:44:21.629Z,18.10
2018-07-09T23:46:48.917Z,18.20
2018-07-09T23:49:16.205Z,18.20
2018-07-09T23:51:43.499Z,18.20
2018-07-09T23:54:10.812Z,18.10
2018-07-09T23:58:55.337Z,18.00
